createdAt,value
2023-01-30T00:01:59.578Z,99.64
2023-01-30T00:04:27.424Z,99.79
2023-01-30T00:06:55.277Z,100.00
2023-01-30T00:09:23.487Z,100.00
2023-01-30T00:11:51.334Z,100.00
2023-01-30T00:14:20.505Z,100.00
2023-01-30T00:16:48.496Z,100.00
2023-01-30T00:19:16.322Z,100.00
2023-01-30T00:21:44.167Z,100.00
2023-01-30T00:24:12.088Z,100.00
2023-01-30T00:26:40.003Z,99.67
2023-01-30T00:29:08.132Z,99.01
2023-01-30T00:31:38.187Z,99.02
2023-01-30T00:34:06.037Z,99.05
2023-01-30T00:36:33.842Z,99.04
2023-01-30T00:39:01.735Z,98.23
2023-01-30T00:41:49.515Z,97.30
2023-01-30T00:44:35.217Z,97.31
2023-01-30T00:47:08.914Z,97.59
2023-01-30T00:49:38.401Z,98.15
2023-01-30T00:52:07.241Z,97.72
2023-01-30T00:54:35.184Z,97.63
2023-01-30T00:57:04.116Z,97.55
2023-01-30T00:59:31.917Z,98.15
2023-01-30T01:02:00.004Z,98.62
2023-01-30T01:04:29.374Z,98.27
2023-01-30T01:06:57.201Z,98.31
2023-01-30T01:09:25.014Z,98.54
2023-01-30T01:11:52.861Z,98.80
2023-01-30T01:14:20.818Z,98.72
2023-01-30T01:16:48.739Z,98.05
2023-01-30T01:19:17.482Z,97.75
2023-01-30T01:21:46.641Z,97.44
2023-01-30T01:24:16.652Z,97.11
2023-01-30T01:26:46.004Z,96.98
2023-01-30T01:29:17.985Z,96.38
2023-01-30T01:31:45.906Z,96.50
2023-01-30T01:34:13.869Z,96.61
2023-01-30T01:36:53.330Z,96.52
2023-01-30T01:39:24.033Z,96.90
2023-01-30T01:41:51.229Z,97.05
2023-01-30T01:44:19.100Z,97.84
2023-01-30T01:46:51.133Z,97.61
2023-01-30T01:49:23.891Z,97.08
2023-01-30T01:51:56.460Z,96.93
2023-01-30T01:54:31.671Z,96.19
2023-01-30T01:57:04.157Z,96.29
2023-01-30T01:59:35.123Z,96.50
2023-01-30T02:02:13.996Z,96.80
2023-01-30T02:05:02.859Z,97.11
2023-01-30T02:07:37.310Z,97.55
2023-01-30T02:10:09.578Z,97.32
2023-01-30T02:12:39.215Z,96.82
2023-01-30T02:15:08.311Z,96.45
2023-01-30T02:17:36.268Z,96.59
2023-01-30T02:20:09.122Z,96.03
2023-01-30T02:22:57.130Z,95.82
2023-01-30T02:25:56.613Z,95.81
2023-01-30T02:29:02.861Z,95.61
2023-01-30T02:31:42.053Z,94.84
2023-01-30T02:34:28.487Z,93.81
2023-01-30T02:37:06.752Z,93.93
2023-01-30T02:39:49.867Z,93.64
2023-01-30T02:42:25.972Z,93.48
2023-01-30T02:45:00.233Z,93.57
2023-01-30T02:47:36.137Z,93.53
2023-01-30T02:50:09.483Z,94.23
2023-01-30T02:52:38.500Z,94.17
2023-01-30T02:55:10.131Z,93.73
2023-01-30T02:57:38.009Z,92.83
2023-01-30T03:00:07.384Z,91.88
2023-01-30T03:03:07.023Z,92.17
2023-01-30T03:05:49.007Z,92.38
2023-01-30T03:08:26.640Z,93.11
2023-01-30T03:11:00.744Z,93.84
2023-01-30T03:13:45.652Z,93.29
2023-01-30T03:16:19.223Z,93.40
2023-01-30T03:18:49.254Z,93.31
2023-01-30T03:21:17.165Z,93.02
2023-01-30T03:23:46.854Z,92.67
2023-01-30T03:26:19.974Z,93.06
2023-01-30T03:28:50.996Z,93.28
2023-01-30T03:31:19.026Z,93.03
2023-01-30T03:33:48.284Z,93.13
2023-01-30T03:36:16.570Z,93.16
2023-01-30T03:38:44.402Z,92.75
2023-01-30T03:41:12.332Z,92.86
2023-01-30T03:43:40.213Z,93.41
2023-01-30T03:46:08.119Z,93.17
2023-01-30T03:48:35.943Z,93.41
2023-01-30T03:51:05.654Z,93.48
2023-01-30T03:53:33.566Z,93.68
2023-01-30T03:56:01.362Z,94.36
2023-01-30T03:58:29.202Z,94.87
2023-01-30T04:00:57.475Z,95.48
2023-01-30T04:03:25.818Z,95.10
2023-01-30T04:05:54.490Z,94.84
2023-01-30T04:08:23.668Z,94.73
2023-01-30T04:10:51.455Z,94.89
2023-01-30T04:13:19.325Z,95.32
2023-01-30T04:15:47.102Z,95.38
2023-01-30T04:18:14.935Z,95.30
2023-01-30T04:20:42.812Z,95.43
2023-01-30T04:23:10.652Z,95.37
2023-01-30T04:25:39.770Z,95.31
2023-01-30T04:28:07.630Z,95.36
2023-01-30T04:30:35.639Z,95.60
2023-01-30T04:33:03.466Z,94.87
2023-01-30T04:35:31.298Z,95.26
2023-01-30T04:37:59.119Z,95.59
2023-01-30T04:40:27.015Z,95.87
2023-01-30T04:42:56.257Z,95.30
2023-01-30T04:45:24.032Z,94.86
2023-01-30T04:47:51.943Z,94.77
2023-01-30T04:50:20.612Z,95.44
2023-01-30T04:52:48.438Z,95.50
2023-01-30T04:55:16.410Z,95.60
2023-01-30T04:57:44.488Z,95.77
2023-01-30T05:00:14.736Z,96.25
2023-01-30T05:02:42.532Z,96.25
2023-01-30T05:05:10.759Z,96.39
2023-01-30T05:07:38.609Z,96.20
2023-01-30T05:10:07.727Z,96.40
2023-01-30T05:12:35.798Z,95.22
2023-01-30T05:15:03.670Z,94.79
2023-01-30T05:17:32.895Z,95.11
2023-01-30T05:20:01.590Z,94.85
2023-01-30T05:22:29.451Z,95.11
2023-01-30T05:24:57.239Z,95.30
2023-01-30T05:27:26.125Z,94.86
2023-01-30T05:29:53.950Z,94.79
2023-01-30T05:32:22.053Z,94.19
2023-01-30T05:34:51.254Z,93.98
2023-01-30T05:37:19.318Z,94.08
2023-01-30T05:39:47.084Z,94.02
2023-01-30T05:42:16.356Z,93.76
2023-01-30T05:44:44.171Z,93.06
2023-01-30T05:47:11.976Z,92.00
2023-01-30T05:49:39.879Z,91.77
2023-01-30T05:52:09.025Z,91.30
2023-01-30T05:54:36.871Z,91.46
2023-01-30T05:57:06.310Z,90.55
2023-01-30T05:59:34.158Z,89.54
2023-01-30T06:02:01.939Z,88.82
2023-01-30T06:04:29.780Z,88.51
2023-01-30T06:06:57.589Z,88.46
2023-01-30T06:09:26.892Z,88.33
2023-01-30T06:11:55.655Z,88.02
2023-01-30T06:14:23.452Z,88.23
2023-01-30T06:16:51.734Z,87.96
2023-01-30T06:19:19.733Z,87.52
2023-01-30T06:21:47.585Z,87.21
2023-01-30T06:24:15.581Z,86.97
2023-01-30T06:26:44.835Z,87.25
2023-01-30T06:29:12.779Z,87.66
2023-01-30T06:31:40.605Z,87.63
2023-01-30T06:34:09.287Z,87.41
2023-01-30T06:36:37.101Z,87.23
2023-01-30T06:39:05.205Z,87.16
2023-01-30T06:41:33.123Z,86.43
2023-01-30T06:44:02.269Z,86.11
2023-01-30T06:46:30.157Z,86.67
2023-01-30T06:48:58.030Z,86.97
2023-01-30T06:51:27.548Z,87.05
2023-01-30T06:53:55.401Z,86.86
2023-01-30T06:56:23.283Z,87.27
2023-01-30T06:58:51.082Z,87.14
2023-01-30T07:01:21.298Z,87.53
2023-01-30T07:03:49.632Z,87.80
2023-01-30T07:06:17.509Z,87.36
2023-01-30T07:08:45.483Z,87.11
2023-01-30T07:11:13.573Z,87.29
2023-01-30T07:13:41.350Z,87.17
2023-01-30T07:16:09.427Z,87.34
2023-01-30T07:18:38.700Z,87.80
2023-01-30T07:21:06.959Z,87.84
2023-01-30T07:23:34.765Z,88.13
2023-01-30T07:26:04.834Z,87.87
2023-01-30T07:28:32.870Z,87.53
2023-01-30T07:31:01.026Z,87.71
2023-01-30T07:33:28.997Z,87.50
2023-01-30T07:35:58.344Z,87.57
2023-01-30T07:38:26.377Z,87.29
2023-01-30T07:40:54.228Z,86.48
2023-01-30T07:43:22.110Z,86.56
2023-01-30T07:45:50.346Z,86.53
2023-01-30T07:48:20.196Z,86.26
2023-01-30T07:50:48.096Z,86.34
2023-01-30T07:53:18.879Z,86.00
2023-01-30T07:55:46.837Z,85.58
2023-01-30T07:58:15.617Z,85.47
2023-01-30T08:00:43.767Z,85.16
2023-01-30T08:03:13.783Z,85.20
2023-01-30T08:05:41.635Z,85.75
2023-01-30T08:08:09.662Z,85.40
2023-01-30T08:10:39.692Z,85.07
2023-01-30T08:13:07.492Z,84.50
2023-01-30T08:15:37.082Z,84.15
2023-01-30T08:18:05.075Z,83.42
2023-01-30T08:20:32.875Z,83.27
2023-01-30T08:23:02.085Z,83.42
2023-01-30T08:25:32.913Z,83.67
2023-01-30T08:28:02.287Z,83.90
2023-01-30T08:30:31.402Z,84.15
2023-01-30T08:32:59.659Z,83.32
2023-01-30T08:35:27.624Z,82.99
2023-01-30T08:37:55.504Z,83.13
2023-01-30T08:40:23.329Z,83.05
2023-01-30T08:42:51.095Z,83.00
2023-01-30T08:45:20.327Z,82.84
2023-01-30T08:47:48.130Z,82.36
2023-01-30T08:50:16.341Z,82.90
2023-01-30T08:52:44.364Z,83.20
2023-01-30T08:55:12.424Z,83.35
2023-01-30T08:57:40.234Z,83.15
2023-01-30T09:00:10.045Z,83.10
2023-01-30T09:02:39.626Z,82.45
2023-01-30T09:05:08.960Z,82.69
2023-01-30T09:07:36.769Z,82.86
2023-01-30T09:10:05.144Z,83.06
2023-01-30T09:12:32.959Z,83.25
2023-01-30T09:15:00.780Z,83.23
2023-01-30T09:17:28.617Z,82.41
2023-01-30T09:19:57.836Z,82.17
2023-01-30T09:22:28.594Z,81.71
2023-01-30T09:24:56.452Z,81.41
2023-01-30T09:27:24.236Z,80.71
2023-01-30T09:29:52.080Z,80.74
2023-01-30T09:32:20.051Z,80.30
2023-01-30T09:34:47.895Z,79.35
2023-01-30T09:37:17.049Z,79.29
2023-01-30T09:39:44.905Z,76.98
2023-01-30T09:42:45.304Z,75.14
2023-01-30T09:45:32.006Z,75.43
2023-01-30T09:48:11.042Z,74.93
2023-01-30T09:50:57.899Z,75.32
2023-01-30T09:53:36.530Z,75.10
2023-01-30T09:56:05.047Z,75.83
2023-01-30T09:58:42.644Z,75.87
2023-01-30T10:01:20.694Z,76.25
2023-01-30T10:04:02.624Z,76.20
2023-01-30T10:06:34.394Z,75.69
2023-01-30T10:09:12.551Z,75.23
2023-01-30T10:11:53.304Z,73.78
2023-01-30T10:14:49.617Z,73.51
2023-01-30T10:17:34.218Z,73.19
2023-01-30T10:20:22.935Z,73.47
2023-01-30T10:23:04.645Z,72.69
2023-01-30T10:25:39.469Z,73.10
2023-01-30T10:28:13.288Z,73.99
2023-01-30T10:30:41.797Z,73.39
2023-01-30T10:33:19.368Z,73.55
2023-01-30T10:35:59.461Z,73.24
2023-01-30T10:38:31.452Z,73.26
2023-01-30T10:41:11.504Z,72.62
2023-01-30T10:43:43.893Z,72.87
2023-01-30T10:46:29.038Z,72.93
2023-01-30T10:49:01.336Z,73.36
2023-01-30T10:51:39.594Z,73.29
2023-01-30T10:54:16.989Z,73.11
2023-01-30T10:56:55.614Z,73.32
2023-01-30T10:59:29.319Z,72.05
2023-01-30T11:02:04.270Z,71.65
2023-01-30T11:04:35.333Z,71.82
2023-01-30T11:07:04.123Z,72.18
2023-01-30T11:09:42.677Z,70.45
2023-01-30T11:12:12.137Z,70.18
2023-01-30T11:14:52.650Z,70.41
2023-01-30T11:17:22.479Z,71.04
2023-01-30T11:19:56.761Z,70.32
2023-01-30T11:22:27.039Z,69.93
2023-01-30T11:25:10.832Z,70.45
2023-01-30T11:27:43.261Z,70.14
2023-01-30T11:30:16.858Z,69.29
2023-01-30T11:32:47.416Z,69.21
2023-01-30T11:35:25.737Z,69.84
2023-01-30T11:37:54.672Z,69.57
2023-01-30T11:40:27.559Z,69.90
2023-01-30T11:43:05.029Z,70.23
2023-01-30T11:45:39.120Z,69.33
2023-01-30T11:48:31.266Z,70.25
2023-01-30T11:51:04.557Z,70.17
2023-01-30T11:53:37.612Z,70.40
2023-01-30T11:56:12.962Z,70.84
2023-01-30T11:58:46.276Z,71.25
2023-01-30T12:01:16.210Z,70.69
2023-01-30T12:03:51.781Z,70.83
2023-01-30T12:06:24.958Z,71.01
2023-01-30T12:08:55.185Z,70.93
2023-01-30T12:11:45.020Z,70.91
2023-01-30T12:14:24.172Z,71.89
2023-01-30T12:16:59.941Z,71.30
2023-01-30T12:19:41.094Z,71.83
2023-01-30T12:22:21.588Z,72.08
2023-01-30T12:24:59.624Z,72.45
2023-01-30T12:27:38.858Z,72.47
2023-01-30T12:30:22.128Z,73.83
2023-01-30T12:32:50.088Z,74.49
2023-01-30T12:35:19.494Z,74.98
2023-01-30T12:38:01.994Z,75.32
2023-01-30T12:40:43.780Z,75.59
2023-01-30T12:43:34.756Z,76.28
2023-01-30T12:46:16.703Z,76.88
2023-01-30T12:49:11.752Z,77.25
2023-01-30T12:51:59.630Z,77.83
2023-01-30T12:54:41.006Z,78.11
2023-01-30T12:57:21.029Z,78.94
2023-01-30T12:59:58.065Z,79.50
2023-01-30T13:02:43.919Z,79.70
2023-01-30T13:05:32.639Z,80.55
2023-01-30T13:08:14.202Z,81.39
2023-01-30T13:10:46.957Z,81.95
2023-01-30T13:13:23.961Z,82.48
2023-01-30T13:16:03.480Z,82.79
2023-01-30T13:18:36.212Z,83.69
2023-01-30T13:21:11.701Z,84.06
2023-01-30T13:23:49.775Z,85.54
2023-01-30T13:26:22.070Z,86.48
2023-01-30T13:28:54.340Z,87.43
2023-01-30T13:31:25.919Z,88.66
2023-01-30T13:34:07.425Z,89.50
2023-01-30T13:36:43.651Z,90.55
2023-01-30T13:41:56.376Z,93.90
2023-01-30T13:44:27.650Z,96.30
2023-01-30T13:46:58.002Z,98.04
2023-01-30T13:49:35.553Z,99.92
2023-01-30T13:52:09.899Z,100.00
2023-01-30T13:54:53.539Z,100.00
2023-01-30T13:57:30.814Z,100.00
2023-01-30T14:00:28.946Z,100.00
2023-01-30T14:03:28.946Z,100.00
2023-01-30T14:06:15.916Z,100.00
2023-01-30T14:08:53.525Z,100.00
2023-01-30T14:11:38.727Z,100.00
2023-01-30T14:14:26.453Z,100.00
2023-01-30T14:16:56.963Z,100.00
2023-01-30T14:19:37.584Z,100.00
2023-01-30T14:22:21.256Z,100.00
2023-01-30T14:25:21.964Z,100.00
2023-01-30T14:27:50.262Z,100.00
2023-01-30T14:30:37.548Z,100.00
2023-01-30T14:33:36.394Z,100.00
2023-01-30T14:36:37.206Z,100.00
2023-01-30T14:39:39.598Z,100.00
2023-01-30T14:42:21.159Z,100.00
2023-01-30T14:45:00.445Z,100.00
2023-01-30T14:47:38.870Z,100.00
2023-01-30T14:50:20.661Z,100.00
2023-01-30T14:52:50.371Z,100.00
2023-01-30T14:55:24.388Z,100.00
2023-01-30T14:57:57.158Z,100.00
2023-01-30T15:00:29.330Z,100.00
2023-01-30T15:03:00.641Z,100.00
2023-01-30T15:05:33.269Z,100.00
2023-01-30T15:08:07.643Z,100.00
2023-01-30T15:11:04.809Z,100.00
2023-01-30T15:13:43.525Z,100.00
2023-01-30T15:16:40.901Z,100.00
2023-01-30T15:19:31.191Z,100.00
2023-01-30T15:22:13.481Z,100.00
2023-01-30T15:25:15.173Z,100.00
2023-01-30T15:28:00.152Z,100.00
2023-01-30T15:30:44.052Z,100.00
2023-01-30T15:33:29.886Z,100.00
2023-01-30T15:35:59.113Z,100.00
2023-01-30T15:38:30.404Z,100.00
2023-01-30T15:41:01.768Z,100.00
2023-01-30T15:43:57.754Z,100.00
2023-01-30T15:46:37.377Z,100.00
2023-01-30T15:49:41.324Z,100.00
2023-01-30T15:52:15.773Z,100.00
2023-01-30T15:54:50.090Z,100.00
2023-01-30T15:57:24.644Z,100.00
2023-01-30T15:59:56.933Z,100.00
2023-01-30T16:02:31.216Z,100.00
2023-01-30T16:05:16.247Z,100.00
2023-01-30T16:07:45.525Z,100.00
2023-01-30T16:10:16.409Z,100.00
2023-01-30T16:12:45.176Z,100.00
2023-01-30T16:15:28.506Z,100.00
2023-01-30T16:18:05.802Z,100.00
2023-01-30T16:20:58.947Z,100.00
2023-01-30T16:23:32.808Z,100.00
2023-01-30T16:26:01.821Z,100.00
2023-01-30T16:28:31.715Z,100.00
2023-01-30T16:31:03.492Z,100.00
2023-01-30T16:33:36.393Z,100.00
2023-01-30T16:36:05.431Z,100.00
2023-01-30T16:38:40.308Z,100.00
2023-01-30T16:41:31.902Z,100.00
2023-01-30T16:44:11.318Z,100.00
2023-01-30T16:46:56.823Z,100.00
2023-01-30T16:49:33.218Z,100.00
2023-01-30T16:52:03.667Z,100.00
2023-01-30T16:54:33.517Z,100.00
2023-01-30T16:57:02.845Z,100.00
2023-01-30T16:59:33.356Z,100.00
2023-01-30T17:02:05.909Z,100.00
2023-01-30T17:04:35.767Z,100.00
2023-01-30T17:07:05.451Z,100.00
2023-01-30T17:09:41.629Z,100.00
2023-01-30T17:12:38.533Z,100.00
2023-01-30T17:15:43.065Z,100.00
2023-01-30T17:18:13.051Z,100.00
2023-01-30T17:20:51.089Z,100.00
2023-01-30T17:23:21.920Z,100.00
2023-01-30T17:25:50.412Z,100.00
2023-01-30T17:28:21.654Z,100.00
2023-01-30T17:30:50.303Z,100.00
2023-01-30T17:33:19.586Z,100.00
2023-01-30T17:35:47.556Z,100.00
2023-01-30T17:38:15.433Z,100.00
2023-01-30T17:40:43.570Z,100.00
2023-01-30T17:43:13.076Z,100.00
2023-01-30T17:45:41.430Z,100.00
2023-01-30T17:48:10.670Z,100.00
2023-01-30T17:50:39.837Z,100.00
2023-01-30T17:53:08.515Z,100.00
2023-01-30T17:55:36.800Z,100.00
2023-01-30T17:58:04.940Z,100.00
2023-01-30T18:00:32.827Z,100.00
2023-01-30T18:03:00.696Z,100.00
2023-01-30T18:05:28.721Z,100.00
2023-01-30T18:07:57.967Z,100.00
2023-01-30T18:10:26.031Z,100.00
2023-01-30T18:12:53.817Z,100.00
2023-01-30T18:15:21.882Z,100.00
2023-01-30T18:17:51.340Z,100.00
2023-01-30T18:20:21.139Z,100.00
2023-01-30T18:22:49.594Z,100.00
2023-01-30T18:25:19.183Z,100.00
2023-01-30T18:27:48.100Z,100.00
2023-01-30T18:30:18.171Z,100.00
2023-01-30T18:32:52.925Z,100.00
2023-01-30T18:35:22.511Z,100.00
2023-01-30T18:37:50.965Z,100.00
2023-01-30T18:40:21.764Z,100.00
2023-01-30T18:42:50.430Z,100.00
2023-01-30T18:45:18.403Z,100.00
2023-01-30T18:47:46.230Z,100.00
2023-01-30T18:50:14.164Z,100.00
2023-01-30T18:52:41.967Z,100.00
2023-01-30T18:55:10.164Z,99.92
2023-01-30T18:57:39.344Z,100.00
2023-01-30T19:00:08.662Z,100.00
2023-01-30T19:02:36.457Z,100.00
2023-01-30T19:05:04.617Z,100.00
2023-01-30T19:07:32.389Z,100.00
2023-01-30T19:10:00.501Z,100.00
2023-01-30T19:12:45.892Z,100.00
2023-01-30T19:15:15.227Z,100.00
2023-01-30T19:17:43.129Z,100.00
2023-01-30T19:20:12.395Z,100.00
2023-01-30T19:22:40.553Z,100.00
2023-01-30T19:25:09.281Z,100.00
2023-01-30T19:27:38.178Z,100.00
2023-01-30T19:30:07.258Z,100.00
2023-01-30T19:32:36.571Z,100.00
2023-01-30T19:35:04.862Z,100.00
2023-01-30T19:37:32.829Z,100.00
2023-01-30T19:40:00.756Z,100.00
2023-01-30T19:42:28.549Z,100.00
2023-01-30T19:44:56.481Z,100.00
2023-01-30T19:47:24.430Z,100.00
2023-01-30T19:49:54.073Z,100.00
2023-01-30T19:52:21.946Z,100.00
2023-01-30T19:54:49.791Z,100.00
2023-01-30T19:57:17.628Z,100.00
2023-01-30T19:59:45.490Z,100.00
2023-01-30T20:02:13.711Z,100.00
2023-01-30T20:04:41.589Z,100.00
2023-01-30T20:07:11.680Z,100.00
2023-01-30T20:09:39.468Z,100.00
2023-01-30T20:12:07.954Z,100.00
2023-01-30T20:14:36.603Z,100.00
2023-01-30T20:17:04.376Z,100.00
2023-01-30T20:19:32.182Z,100.00
2023-01-30T20:22:00.138Z,100.00
2023-01-30T20:24:29.690Z,100.00
2023-01-30T20:26:57.599Z,100.00
2023-01-30T20:29:25.571Z,100.00
2023-01-30T20:31:54.475Z,100.00
2023-01-30T20:34:22.824Z,100.00
2023-01-30T20:36:50.810Z,100.00
2023-01-30T20:39:20.746Z,100.00
2023-01-30T20:41:50.289Z,100.00
2023-01-30T20:44:18.462Z,100.00
2023-01-30T20:46:47.370Z,100.00
2023-01-30T20:49:16.897Z,100.00
2023-01-30T20:51:45.294Z,100.00
2023-01-30T20:54:15.595Z,100.00
2023-01-30T20:56:45.744Z,100.00
2023-01-30T20:59:18.077Z,100.00
2023-01-30T21:01:46.428Z,100.00
2023-01-30T21:04:15.876Z,100.00
2023-01-30T21:06:46.098Z,100.00
2023-01-30T21:09:17.158Z,100.00
2023-01-30T21:11:45.427Z,100.00
2023-01-30T21:14:13.565Z,100.00
2023-01-30T21:16:43.164Z,100.00
2023-01-30T21:19:14.073Z,100.00
2023-01-30T21:21:50.682Z,100.00
2023-01-30T21:24:20.500Z,100.00
2023-01-30T21:26:48.882Z,100.00
2023-01-30T21:29:19.043Z,100.00
2023-01-30T21:31:48.874Z,100.00
2023-01-30T21:34:17.031Z,100.00
2023-01-30T21:37:04.828Z,100.00
2023-01-30T21:39:50.213Z,100.00
2023-01-30T21:42:35.292Z,100.00
2023-01-30T21:45:05.073Z,100.00
2023-01-30T21:47:34.295Z,100.00
2023-01-30T21:50:02.106Z,100.00
2023-01-30T21:52:32.318Z,100.00
2023-01-30T21:55:00.105Z,100.00
2023-01-30T21:57:27.933Z,100.00
2023-01-30T21:59:56.624Z,100.00
2023-01-30T22:02:26.259Z,100.00
2023-01-30T22:04:55.828Z,100.00
2023-01-30T22:07:24.000Z,100.00
2023-01-30T22:09:51.810Z,100.00
2023-01-30T22:12:19.626Z,100.00
2023-01-30T22:14:47.503Z,100.00
2023-01-30T22:17:15.430Z,100.00
2023-01-30T22:19:43.362Z,100.00
2023-01-30T22:22:12.683Z,100.00
2023-01-30T22:24:40.462Z,100.00
2023-01-30T22:27:08.274Z,100.00
2023-01-30T22:29:36.204Z,100.00
2023-01-30T22:32:04.196Z,100.00
2023-01-30T22:34:33.519Z,100.00
2023-01-30T22:37:02.769Z,100.00
2023-01-30T22:39:31.925Z,100.00
2023-01-30T22:41:59.712Z,100.00
2023-01-30T22:44:28.450Z,100.00
2023-01-30T22:46:56.278Z,100.00
2023-01-30T22:49:24.120Z,100.00
2023-01-30T22:51:51.964Z,100.00
2023-01-30T22:54:19.778Z,100.00
2023-01-30T22:56:51.443Z,100.00
2023-01-30T22:59:19.386Z,100.00
2023-01-30T23:01:50.658Z,100.00
2023-01-30T23:04:20.300Z,100.00
2023-01-30T23:06:49.254Z,100.00
2023-01-30T23:09:20.864Z,100.00
2023-01-30T23:12:07.048Z,100.00
2023-01-30T23:14:35.586Z,100.00
2023-01-30T23:17:25.287Z,99.89
2023-01-30T23:19:52.193Z,99.00
2023-01-30T23:22:20.012Z,99.10
2023-01-30T23:24:48.613Z,100.00
2023-01-30T23:27:17.983Z,100.00
2023-01-30T23:29:45.895Z,100.00
2023-01-30T23:32:14.931Z,100.00
2023-01-30T23:34:42.786Z,100.00
2023-01-30T23:37:10.661Z,100.00
2023-01-30T23:39:38.881Z,100.00
2023-01-30T23:42:06.857Z,100.00
2023-01-30T23:44:36.437Z,100.00
2023-01-30T23:47:04.263Z,100.00
2023-01-30T23:49:32.071Z,100.00
2023-01-30T23:51:59.885Z,100.00
2023-01-30T23:54:27.938Z,100.00
2023-01-30T23:56:56.193Z,100.00
2023-01-30T23:59:24.069Z,100.00
